Hlavní strana
METAR-TAF:

METAR-TAF

Letiště :

Osijek, Chorvatsko

zeměpisná šířka: 45-27N, zeměpisná délka: 018-48E, výška: 88 m

Aktuální stav počasí

Zpráva byla vytvořena před 22 minutami, v 15:30 UTC
Severoseverovýchodní vítr 7 kt
Teplota 12°C
Vlhkost vzduchu 38%
Tlak 1031 hPa
Viditelnost 10 km a více
Žádná oblačnost pod 1500 m, nevyskytují se cumulonimby.

METAR: LDOS 201530Z 02007KT CAVOK 12/M02 Q1031

Čas: 16:52 (15:52 UTC)

Předpověď počasí

Zpráva byla vytvořena před 4 hodinami a 27 minutami, v 11:25 UTC
Předpověď platná od 20 v 12 UTC do 21 v 12 UTC
Severní vítr 7 kt
Viditelnost 10 km a více
Polojasno ve výšce 3000 ft

TAF: LDOS 201125Z 2012/2112 35007KT 9999 SCT030 TX11/2014Z TN00/2105Z

Stav a předpovědi počasí z více než 4 000 letišť (zprávy METAR a TAF).

Červené a žluté tečky na mapě představují dostupné meteorologické stanice.

Když kurzor umístíte na tečku, zobrazí se název stanice.

Pak kliknutím zobrazíte stav a předpověď počasí.

Chcete-li změnit mapu, kliknutím na zelené tlačítko se znaménkem +mapu přiblížíte, kliknutím na zelené tlačítko se znaménkem – mapu oddálíte a kliknutím na zelené šipky přejdete na sousední mapy.


METAR-TAF: